createdAt,value
2023-03-18T00:01:01.401Z,17.88
2023-03-18T00:03:49.262Z,20.80
2023-03-18T00:06:38.145Z,18.02
2023-03-18T00:09:24.721Z,19.20
2023-03-18T00:12:12.708Z,21.25
2023-03-18T00:14:59.676Z,21.25
2023-03-18T00:17:46.709Z,20.30
2023-03-18T00:20:39.440Z,16.17
2023-03-18T00:23:26.165Z,17.38
2023-03-18T00:26:12.606Z,20.75
2023-03-18T00:29:02.704Z,21.80
2023-03-18T00:31:49.646Z,20.38
2023-03-18T00:34:35.607Z,19.25
2023-03-18T00:37:30.361Z,22.50
2023-03-18T00:40:20.491Z,20.95
2023-03-18T00:43:08.731Z,22.58
2023-03-18T00:45:57.461Z,21.40
2023-03-18T00:48:44.057Z,19.48
2023-03-18T00:51:32.333Z,20.77
2023-03-18T00:54:20.799Z,21.38
2023-03-18T00:57:08.035Z,23.92
2023-03-18T00:59:55.779Z,16.13
2023-03-18T01:02:44.100Z,16.20
2023-03-18T01:05:30.430Z,18.42
2023-03-18T01:08:17.269Z,19.95
2023-03-18T01:11:04.913Z,17.83
2023-03-18T01:13:51.836Z,18.13
2023-03-18T01:16:38.250Z,21.35
2023-03-18T01:19:26.608Z,18.35
2023-03-18T01:22:12.889Z,24.08
2023-03-18T01:25:05.078Z,20.73
2023-03-18T01:27:55.852Z,21.80
2023-03-18T01:30:42.749Z,23.77
2023-03-18T01:33:30.268Z,21.63
2023-03-18T01:36:18.534Z,20.58
2023-03-18T01:39:18.467Z,25.33
2023-03-18T01:42:06.327Z,23.98
2023-03-18T01:45:17.978Z,21.20
2023-03-18T01:48:04.791Z,22.08
2023-03-18T01:50:55.337Z,27.05
2023-03-18T01:53:49.548Z,23.45
2023-03-18T01:56:40.105Z,21.95
2023-03-18T01:59:30.705Z,24.02
2023-03-18T02:02:18.868Z,22.77
2023-03-18T02:05:08.195Z,21.30
2023-03-18T02:07:54.852Z,23.23
2023-03-18T02:10:42.864Z,24.00
2023-03-18T02:13:31.821Z,23.30
2023-03-18T02:16:22.477Z,26.23
2023-03-18T02:22:12.106Z,24.83
2023-03-18T02:25:12.023Z,22.05
2023-03-18T02:28:04.105Z,21.55
2023-03-18T02:30:55.634Z,24.10
2023-03-18T02:33:43.636Z,21.23
2023-03-18T02:36:32.670Z,26.45
2023-03-18T02:39:22.473Z,21.10
2023-03-18T02:42:13.017Z,26.50
2023-03-18T02:45:04.451Z,24.67
2023-03-18T02:48:07.061Z,18.80
2023-03-18T02:53:41.925Z,26.52
2023-03-18T02:56:28.574Z,24.45
2023-03-18T02:59:15.935Z,22.10
2023-03-18T03:02:03.820Z,25.10
2023-03-18T03:04:50.472Z,28.92
2023-03-18T03:07:37.971Z,26.00
2023-03-18T03:10:27.440Z,26.35
2023-03-18T03:13:15.646Z,21.65
2023-03-18T03:16:02.353Z,21.23
2023-03-18T03:18:50.585Z,28.90
2023-03-18T03:21:37.212Z,28.48
2023-03-18T03:24:23.986Z,20.52
2023-03-18T03:27:10.704Z,24.35
2023-03-18T03:29:57.176Z,29.52
2023-03-18T03:32:43.498Z,23.50
2023-03-18T03:35:33.030Z,26.20
2023-03-18T03:38:19.729Z,22.88
2023-03-18T03:41:06.433Z,22.88
2023-03-18T03:43:53.096Z,23.02
2023-03-18T03:46:39.181Z,24.08
2023-03-18T03:49:26.113Z,22.10
2023-03-18T03:52:14.298Z,26.48
2023-03-18T03:55:05.958Z,27.77
2023-03-18T03:57:53.261Z,20.08
2023-03-18T04:00:39.612Z,24.02
2023-03-18T04:03:26.174Z,25.38
2023-03-18T04:06:13.246Z,20.55
2023-03-18T04:09:07.771Z,24.55
2023-03-18T04:11:54.085Z,25.70
2023-03-18T04:14:40.666Z,24.17
2023-03-18T04:17:27.243Z,23.92
2023-03-18T04:20:14.699Z,26.48
2023-03-18T04:23:01.150Z,25.67
2023-03-18T04:25:49.339Z,21.23
2023-03-18T04:28:36.132Z,24.60
2023-03-18T04:31:25.037Z,26.98
2023-03-18T04:34:12.023Z,21.17
2023-03-18T04:36:58.445Z,27.88
2023-03-18T04:39:47.232Z,24.02
2023-03-18T04:42:34.858Z,28.08
2023-03-18T04:45:22.674Z,26.60
2023-03-18T04:51:02.038Z,25.75
2023-03-18T04:53:50.266Z,22.95
2023-03-18T04:56:37.036Z,30.65
2023-03-18T04:59:24.969Z,27.50
2023-03-18T05:02:12.988Z,23.40
2023-03-18T05:05:01.092Z,40.35
2023-03-18T05:07:49.688Z,27.90
2023-03-18T05:10:40.088Z,27.75
2023-03-18T05:13:28.436Z,26.27
2023-03-18T05:16:16.482Z,25.55
2023-03-18T05:19:03.337Z,24.80
2023-03-18T05:21:50.022Z,28.00
2023-03-18T05:24:39.073Z,26.75
2023-03-18T05:27:27.487Z,27.35
2023-03-18T05:30:19.806Z,30.08
2023-03-18T05:33:11.495Z,39.95
2023-03-18T05:36:05.750Z,25.02
2023-03-18T05:38:58.390Z,31.60
2023-03-18T05:41:45.229Z,25.02
2023-03-18T05:44:35.924Z,24.08
2023-03-18T05:47:24.318Z,25.88
2023-03-18T05:50:31.066Z,28.85
2023-03-18T05:53:18.939Z,26.20
2023-03-18T05:56:08.809Z,23.25
2023-03-18T05:58:55.375Z,27.40
2023-03-18T06:01:52.655Z,30.40
2023-03-18T06:04:40.121Z,31.13
2023-03-18T06:07:27.926Z,25.13
2023-03-18T06:10:14.894Z,26.23
2023-03-18T06:13:03.052Z,29.35
2023-03-18T06:15:49.421Z,27.33
2023-03-18T06:18:35.936Z,26.33
2023-03-18T06:21:22.579Z,30.90
2023-03-18T06:24:10.699Z,24.67
2023-03-18T06:26:58.685Z,22.27
2023-03-18T06:29:45.596Z,23.70
2023-03-18T06:32:36.756Z,25.75
2023-03-18T06:35:26.579Z,23.15
2023-03-18T06:38:14.479Z,29.00
2023-03-18T06:41:03.422Z,29.15
2023-03-18T06:43:54.525Z,28.15
2023-03-18T06:46:44.016Z,33.88
2023-03-18T06:49:31.740Z,32.05
2023-03-18T06:52:27.586Z,26.80
2023-03-18T06:55:19.059Z,26.67
2023-03-18T06:58:07.163Z,32.10
2023-03-18T07:01:02.896Z,33.38
2023-03-18T07:03:54.586Z,33.65
2023-03-18T07:06:41.326Z,41.75
2023-03-18T07:09:27.682Z,33.58
2023-03-18T07:12:17.521Z,28.92
2023-03-18T07:15:05.685Z,31.73
2023-03-18T07:17:53.287Z,32.03
2023-03-18T07:20:40.158Z,31.63
2023-03-18T07:23:27.657Z,33.00
2023-03-18T07:26:17.093Z,32.63
2023-03-18T07:29:05.388Z,31.85
2023-03-18T07:31:54.007Z,30.45
2023-03-18T07:34:41.129Z,31.67
2023-03-18T07:37:28.769Z,28.50
2023-03-18T07:40:15.545Z,27.60
2023-03-18T07:43:01.821Z,26.35
2023-03-18T07:45:48.466Z,29.77
2023-03-18T07:48:36.158Z,29.58
2023-03-18T07:51:22.865Z,27.60
2023-03-18T07:54:09.538Z,26.25
2023-03-18T07:56:55.958Z,27.75
2023-03-18T07:59:42.457Z,25.42
2023-03-18T08:02:29.064Z,21.67
2023-03-18T08:05:16.676Z,24.75
2023-03-18T08:08:04.351Z,19.40
2023-03-18T08:10:51.049Z,19.88
2023-03-18T08:13:38.407Z,20.02
2023-03-18T08:16:25.620Z,20.85
2023-03-18T08:19:12.409Z,22.55
2023-03-18T08:22:00.002Z,24.17
2023-03-18T08:24:46.417Z,22.80
2023-03-18T08:27:33.059Z,21.25
2023-03-18T08:30:20.176Z,25.05
2023-03-18T08:33:06.577Z,23.33
2023-03-18T08:35:53.179Z,20.90
2023-03-18T08:38:40.719Z,22.50
2023-03-18T08:41:27.171Z,24.70
2023-03-18T08:44:13.537Z,21.60
2023-03-18T08:47:00.394Z,23.45
2023-03-18T08:49:46.744Z,21.75
2023-03-18T08:52:33.491Z,23.33
2023-03-18T08:55:21.390Z,22.52
2023-03-18T08:58:09.049Z,21.77
2023-03-18T09:00:55.884Z,22.10
2023-03-18T09:03:42.521Z,21.58
2023-03-18T09:06:29.952Z,21.88
2023-03-18T09:09:16.741Z,25.27
2023-03-18T09:12:05.683Z,24.90
2023-03-18T09:14:52.611Z,22.30
2023-03-18T09:17:56.497Z,21.27
2023-03-18T09:20:47.393Z,19.77
2023-03-18T09:23:34.361Z,18.77
2023-03-18T09:26:20.823Z,18.10
2023-03-18T09:29:08.744Z,19.00
2023-03-18T09:31:56.370Z,20.75
2023-03-18T09:34:43.053Z,22.20
2023-03-18T09:37:29.360Z,22.13
2023-03-18T09:40:22.044Z,19.02
2023-03-18T09:43:21.760Z,19.55
2023-03-18T09:46:20.240Z,20.63
2023-03-18T09:49:19.306Z,20.73
2023-03-18T09:52:18.291Z,21.95
2023-03-18T09:55:10.346Z,18.02
2023-03-18T09:58:03.128Z,17.80
2023-03-18T10:00:52.860Z,18.65
2023-03-18T10:03:46.725Z,17.23
2023-03-18T10:06:34.464Z,21.88
2023-03-18T10:09:26.222Z,19.05
2023-03-18T10:12:19.127Z,21.13
2023-03-18T10:15:16.582Z,17.38
2023-03-18T10:18:11.536Z,15.27
2023-03-18T10:21:13.015Z,17.50
2023-03-18T10:24:19.354Z,19.38
2023-03-18T10:27:15.249Z,16.70
2023-03-18T10:30:07.373Z,15.25
2023-03-18T10:33:01.940Z,15.77
2023-03-18T10:35:53.052Z,17.27
2023-03-18T10:38:44.723Z,13.15
2023-03-18T10:41:34.637Z,12.65
2023-03-18T10:44:25.775Z,17.08
2023-03-18T10:47:19.026Z,14.95
2023-03-18T10:50:17.449Z,14.32
2023-03-18T10:53:13.742Z,15.32
2023-03-18T10:56:06.047Z,12.60
2023-03-18T10:58:53.610Z,11.98
2023-03-18T11:01:41.589Z,10.43
2023-03-18T11:04:30.594Z,11.30
2023-03-18T11:07:25.918Z,10.52
2023-03-18T11:10:19.926Z,13.27
2023-03-18T11:13:07.685Z,14.18
2023-03-18T11:15:56.680Z,13.00
2023-03-18T11:18:46.114Z,11.55
2023-03-18T11:21:34.458Z,11.80
2023-03-18T11:24:36.286Z,13.43
2023-03-18T11:27:26.864Z,10.95
2023-03-18T11:30:41.033Z,11.23
2023-03-18T11:33:35.058Z,15.43
2023-03-18T11:36:25.062Z,9.93
2023-03-18T11:42:01.455Z,8.93
2023-03-18T11:44:49.964Z,12.88
2023-03-18T11:47:39.060Z,9.13
2023-03-18T11:50:31.392Z,11.27
2023-03-18T11:53:28.029Z,9.93
2023-03-18T11:56:21.170Z,9.38
2023-03-18T11:59:26.743Z,11.50
2023-03-18T12:02:27.221Z,9.50
2023-03-18T12:05:38.499Z,10.65
2023-03-18T12:08:37.753Z,9.00
2023-03-18T12:11:34.473Z,10.17
2023-03-18T12:14:28.608Z,11.77
2023-03-18T12:17:27.050Z,20.35
2023-03-18T12:20:40.335Z,9.93
2023-03-18T12:23:51.150Z,9.20
2023-03-18T12:26:45.875Z,10.52
2023-03-18T12:29:56.491Z,10.70
2023-03-18T12:32:50.776Z,8.95
2023-03-18T12:35:55.703Z,9.15
2023-03-18T12:38:56.330Z,9.88
2023-03-18T12:41:52.662Z,8.85
2023-03-18T12:44:53.076Z,11.80
2023-03-18T12:47:45.436Z,8.73
2023-03-18T12:50:38.142Z,8.70
2023-03-18T12:53:30.935Z,10.95
2023-03-18T12:56:21.401Z,10.77
2023-03-18T12:59:14.077Z,11.05
2023-03-18T13:02:41.185Z,12.73
2023-03-18T13:05:38.137Z,7.72
2023-03-18T13:08:40.530Z,7.25
2023-03-18T13:11:46.264Z,7.78
2023-03-18T13:14:44.557Z,9.65
2023-03-18T13:17:34.023Z,11.02
2023-03-18T13:20:24.645Z,8.10
2023-03-18T13:23:23.242Z,6.85
2023-03-18T13:26:22.171Z,10.10
2023-03-18T13:29:20.410Z,9.48
2023-03-18T13:32:25.474Z,9.68
2023-03-18T13:35:51.498Z,12.07
2023-03-18T13:39:10.748Z,5.70
2023-03-18T13:42:22.284Z,6.95
2023-03-18T13:45:25.354Z,6.03
2023-03-18T13:48:16.555Z,6.70
2023-03-18T13:51:20.388Z,6.70
2023-03-18T13:54:13.484Z,6.93
2023-03-18T13:57:17.858Z,6.78
2023-03-18T14:00:32.379Z,7.88
2023-03-18T14:03:23.144Z,8.52
2023-03-18T14:06:26.516Z,10.90
2023-03-18T14:09:36.604Z,6.72
2023-03-18T14:12:39.719Z,8.95
2023-03-18T14:15:44.314Z,7.35
2023-03-18T14:18:36.966Z,8.15
2023-03-18T14:21:25.612Z,5.75
2023-03-18T14:24:14.395Z,4.93
2023-03-18T14:27:15.897Z,4.07
2023-03-18T14:30:41.175Z,7.18
2023-03-18T14:33:40.990Z,6.72
2023-03-18T14:36:47.061Z,6.93
2023-03-18T14:39:38.474Z,7.82
2023-03-18T14:42:31.608Z,6.35
2023-03-18T14:45:24.443Z,8.50
2023-03-18T14:48:18.281Z,6.22
2023-03-18T14:51:11.691Z,5.07
2023-03-18T14:54:04.832Z,9.82
2023-03-18T14:56:56.582Z,8.43
2023-03-18T14:59:43.260Z,5.78
2023-03-18T15:02:35.008Z,6.38
2023-03-18T15:05:22.710Z,9.20
2023-03-18T15:08:17.885Z,5.20
2023-03-18T15:11:07.433Z,4.93
2023-03-18T15:13:56.878Z,8.27
2023-03-18T15:16:50.575Z,5.60
2023-03-18T15:19:37.061Z,4.32
2023-03-18T15:22:26.038Z,5.25
2023-03-18T15:25:19.277Z,4.90
2023-03-18T15:28:07.190Z,5.72
2023-03-18T15:30:55.858Z,4.10
2023-03-18T15:33:43.073Z,8.13
2023-03-18T15:36:29.998Z,2.80
2023-03-18T15:39:30.618Z,3.63
2023-03-18T15:42:20.105Z,4.53
2023-03-18T15:45:07.210Z,4.93
2023-03-18T15:47:54.274Z,4.65
2023-03-18T15:50:52.894Z,3.38
2023-03-18T15:53:43.731Z,4.68
2023-03-18T15:59:24.912Z,5.47
2023-03-18T16:02:15.361Z,5.18
2023-03-18T16:05:17.925Z,2.72
2023-03-18T16:08:04.160Z,4.90
2023-03-18T16:10:52.558Z,2.50
2023-03-18T16:13:39.901Z,4.75
2023-03-18T16:16:30.508Z,5.10
2023-03-18T16:19:24.918Z,2.78
2023-03-18T16:22:12.494Z,4.10
2023-03-18T16:25:01.164Z,2.33
2023-03-18T16:27:50.059Z,7.10
2023-03-18T16:30:40.058Z,2.70
2023-03-18T16:33:27.826Z,3.65
2023-03-18T16:36:24.769Z,3.95
2023-03-18T16:39:15.989Z,3.60
2023-03-18T16:42:04.197Z,2.95
2023-03-18T16:44:50.719Z,4.18
2023-03-18T16:47:36.832Z,4.20
2023-03-18T16:50:28.405Z,5.28
2023-03-18T16:53:18.333Z,3.65
2023-03-18T16:56:16.427Z,3.60
2023-03-18T16:59:02.756Z,7.53
2023-03-18T17:01:50.583Z,4.50
2023-03-18T17:04:37.609Z,5.70
2023-03-18T17:07:25.469Z,4.82
2023-03-18T17:10:13.430Z,5.15
2023-03-18T17:13:05.774Z,3.25
2023-03-18T17:15:52.705Z,5.05
2023-03-18T17:18:38.759Z,7.07
2023-03-18T17:21:28.415Z,5.03
2023-03-18T17:24:16.091Z,4.55
2023-03-18T17:27:02.597Z,4.95
2023-03-18T17:29:49.026Z,5.43
2023-03-18T17:32:36.073Z,3.92
2023-03-18T17:35:24.198Z,3.72
2023-03-18T17:38:11.075Z,6.30
2023-03-18T17:41:00.094Z,4.32
2023-03-18T17:43:47.150Z,5.28
2023-03-18T17:46:33.771Z,4.60
2023-03-18T17:49:24.275Z,2.83
2023-03-18T17:52:12.166Z,4.15
2023-03-18T17:54:58.646Z,6.78
2023-03-18T17:57:46.818Z,5.28
2023-03-18T18:00:33.878Z,4.95
2023-03-18T18:03:23.036Z,5.75
2023-03-18T18:06:16.843Z,5.80
2023-03-18T18:09:04.385Z,6.20
2023-03-18T18:11:51.011Z,6.10
2023-03-18T18:14:39.756Z,5.55
2023-03-18T18:17:25.802Z,5.28
2023-03-18T18:20:15.185Z,5.25
2023-03-18T18:23:03.055Z,5.82
2023-03-18T18:25:49.669Z,5.55
2023-03-18T18:28:37.706Z,3.58
2023-03-18T18:31:25.362Z,3.47
2023-03-18T18:34:12.287Z,7.25
2023-03-18T18:36:58.778Z,7.18
2023-03-18T18:39:45.304Z,4.03
2023-03-18T18:42:31.683Z,4.75
2023-03-18T18:45:21.152Z,7.85
2023-03-18T18:48:14.456Z,5.00
2023-03-18T18:51:02.008Z,6.40
2023-03-18T18:53:49.094Z,6.03
2023-03-18T18:56:36.877Z,6.57
2023-03-18T18:59:27.508Z,4.28
2023-03-18T19:02:29.789Z,6.68
2023-03-18T19:05:17.660Z,6.07
2023-03-18T19:08:04.685Z,6.05
2023-03-18T19:10:51.690Z,5.88
2023-03-18T19:13:38.549Z,5.63
2023-03-18T19:16:30.783Z,4.97
2023-03-18T19:19:19.920Z,4.63
2023-03-18T19:22:10.409Z,6.18
2023-03-18T19:24:57.252Z,6.68
2023-03-18T19:27:43.599Z,5.22
2023-03-18T19:30:30.184Z,5.05
2023-03-18T19:33:18.138Z,6.25
2023-03-18T19:36:07.868Z,5.70
2023-03-18T19:39:04.463Z,5.33
2023-03-18T19:42:00.870Z,5.70
2023-03-18T19:44:53.817Z,3.92
2023-03-18T19:47:50.929Z,6.70
2023-03-18T19:50:49.625Z,7.93
2023-03-18T19:53:43.326Z,5.70
2023-03-18T19:56:38.839Z,8.90
2023-03-18T19:59:38.714Z,9.35
2023-03-18T20:02:36.840Z,8.20
2023-03-18T20:05:28.069Z,10.88
2023-03-18T20:08:19.313Z,8.02
2023-03-18T20:11:17.341Z,7.75
2023-03-18T20:14:22.606Z,6.28
2023-03-18T20:17:30.721Z,5.72
2023-03-18T20:20:26.315Z,4.28
2023-03-18T20:23:29.318Z,6.63
2023-03-18T20:29:22.811Z,4.90
2023-03-18T20:32:13.186Z,5.45
2023-03-18T20:38:00.549Z,3.03
2023-03-18T20:40:50.805Z,3.35
2023-03-18T20:43:42.449Z,3.00
2023-03-18T20:46:47.802Z,2.67
2023-03-18T20:49:45.380Z,3.70
2023-03-18T20:52:37.397Z,2.38
2023-03-18T20:55:35.330Z,1.15
2023-03-18T20:58:42.353Z,1.48
2023-03-18T21:01:39.773Z,2.28
2023-03-18T21:04:31.481Z,1.00
2023-03-18T21:07:23.678Z,1.40
2023-03-18T21:10:19.298Z,0.70
2023-03-18T21:13:20.423Z,0.43
2023-03-18T21:16:15.523Z,0.70
2023-03-18T21:19:11.173Z,0.98
2023-03-18T21:22:06.502Z,1.63
2023-03-18T21:24:56.330Z,2.47
2023-03-18T21:27:48.225Z,2.50
2023-03-18T21:30:49.886Z,1.17
2023-03-18T21:33:43.983Z,1.38
2023-03-18T21:36:37.497Z,1.25
2023-03-18T21:39:30.218Z,1.20
2023-03-18T21:42:24.330Z,2.17
2023-03-18T21:45:16.679Z,2.30
2023-03-18T21:48:09.582Z,2.67
2023-03-18T21:51:08.531Z,6.07
2023-03-18T21:53:58.989Z,2.55
2023-03-18T21:56:53.079Z,2.50
2023-03-18T21:59:43.496Z,1.73
2023-03-18T22:02:38.814Z,2.50
2023-03-18T22:05:34.812Z,2.90
2023-03-18T22:08:42.206Z,3.20
2023-03-18T22:11:34.162Z,3.08
2023-03-18T22:14:33.793Z,2.38
2023-03-18T22:17:37.167Z,11.25
2023-03-18T22:20:35.981Z,2.20
2023-03-18T22:23:28.358Z,2.33
2023-03-18T22:26:20.732Z,2.05
2023-03-18T22:29:27.894Z,3.80
2023-03-18T22:32:33.689Z,2.03
2023-03-18T22:35:27.606Z,3.42
2023-03-18T22:38:21.882Z,2.60
2023-03-18T22:41:21.998Z,3.47
2023-03-18T22:44:26.793Z,4.38
2023-03-18T22:47:32.281Z,4.40
2023-03-18T22:50:33.518Z,4.10
2023-03-18T22:56:30.379Z,2.85
2023-03-18T22:59:28.677Z,4.10
2023-03-18T23:02:28.419Z,4.82
2023-03-18T23:05:25.702Z,3.65
2023-03-18T23:08:23.617Z,5.03
2023-03-18T23:11:17.185Z,3.45
2023-03-18T23:14:21.474Z,3.95
2023-03-18T23:20:15.860Z,3.80
2023-03-18T23:23:09.268Z,2.25
2023-03-18T23:26:02.324Z,2.83
2023-03-18T23:29:05.101Z,5.18
2023-03-18T23:31:59.602Z,2.72
2023-03-18T23:34:51.915Z,5.35
2023-03-18T23:37:44.506Z,5.47
2023-03-18T23:40:40.746Z,5.38
2023-03-18T23:43:37.135Z,3.50
2023-03-18T23:46:29.763Z,5.82
2023-03-18T23:49:23.705Z,4.63
2023-03-18T23:52:18.130Z,4.25
2023-03-18T23:55:33.937Z,6.28
2023-03-18T23:58:38.403Z,5.80
